Terminal Aerodrome Forecast
Issued by NWS Portland, ME

Home | Current Version | Previous Version | Text Only | Print | Product List | Glossary On
Versions: 1 2 3 4 5 6 7 8 9 10 11 12 13 14 15 16 17 18 19
000
FTUS41 KGYX 280527
TAFPWM
TAF
KPWM 280527Z 2806/2906 22005KT P6SM BKN080
     FM280900 19005KT 6SM -SHRA BR SCT020 BKN035
     FM281500 26010G20KT P6SM SCT040 BKN100=

USA.gov is the U.S. government's official web portal to all federal, state and local government web resources and services.